Urb Santa Maria Mayor, Puerto Rico
Current Conditions -  °F | °C
As of 2:53 PM on Tuesday 21 Oct 2014 (Local Time) from TJNR Reporting Station
Clear Clear  
Wind Chill: 87°   Ceiling: Unl
Heat Index: 95°   Visibility: 10mi
Dew Point: 74°   Wind: 8mph
Humidity: 65%   Direction: 50°NE
Pressure: 29.93"   Gusts: NA
Location:  18.1494°N, 65.8294°W
Report Text: TJNR 211853Z AUTO 05007KT 10SM CLR 31/23 A2993 RMK AO2 SLP134 T03060233
Loading
Personal Weather Stations






























Interactive Weather Map
Tropical Storm Tracking
New forecast layout! Learn more

10-Day Weather Forecast

Advertisements
Track Severe Weather on mobile